Time;durP1;ratioP1;P1;durP2;ratioP2;P2;SDS_P1;SDS_P2;PMS_P1;PMS_P2;Temp;Humidity;BMP_temperature;BMP_pressure;BME280_temperature;BME280_humidity;BME280_pressure;Samples;Min_cycle;Max_cycle;Signal;HPM_P1;HPM_P2
2021/10/27 00:00:09;;;;;;;32.15;23.55;;;13.40;99.90;;;;;;5057175;28;20072;-66
2021/10/27 00:02:36;;;;;;;34.05;24.17;;;13.40;99.90;;;;;;5085063;28;20051;-66
2021/10/27 00:05:02;;;;;;;33.97;24.25;;;13.40;99.90;;;;;;5055122;28;20386;-66
2021/10/27 00:07:28;;;;;;;32.13;23.30;;;13.40;99.90;;;;;;5052710;28;20036;-66
2021/10/27 00:09:54;;;;;;;26.30;21.85;;;13.40;99.90;;;;;;5058256;28;20052;-66
2021/10/27 00:12:20;;;;;;;31.45;23.67;;;13.40;99.90;;;;;;5056542;28;20036;-66
2021/10/27 00:14:46;;;;;;;26.55;23.42;;;13.40;99.90;;;;;;5059879;28;20033;-66
2021/10/27 00:17:11;;;;;;;27.42;22.50;;;13.40;99.90;;;;;;5057633;28;20043;-66
2021/10/27 00:19:37;;;;;;;37.85;22.30;;;13.40;99.90;;;;;;5060367;28;20057;-66
2021/10/27 00:22:03;;;;;;;33.97;24.23;;;13.40;99.90;;;;;;5056417;28;20589;-66
2021/10/27 00:24:28;;;;;;;27.00;22.25;;;13.40;99.90;;;;;;5060088;28;20461;-66
2021/10/27 00:26:54;;;;;;;26.75;21.45;;;13.40;99.90;;;;;;5075095;28;20048;-66
2021/10/27 00:29:20;;;;;;;30.90;20.83;;;13.40;99.90;;;;;;5088687;27;20402;-66
2021/10/27 00:31:45;;;;;;;26.20;20.35;;;13.40;99.90;;;;;;5064933;28;20077;-66
2021/10/27 00:34:11;;;;;;;31.33;21.75;;;13.40;99.90;;;;;;5057534;28;20509;-66
2021/10/27 00:36:36;;;;;;;29.52;21.15;;;13.40;99.90;;;;;;5090642;27;20052;-66
2021/10/27 00:39:03;;;;;;;27.88;21.27;;;13.40;99.90;;;;;;5060091;28;20056;-66
2021/10/27 00:41:28;;;;;;;36.97;20.35;;;13.40;99.90;;;;;;5060872;28;20116;-66
2021/10/27 00:43:54;;;;;;;29.40;20.40;;;13.40;99.90;;;;;;5059416;28;20055;-66
2021/10/27 00:46:22;;;;;;;25.63;19.92;;;13.40;99.90;;;;;;5055463;28;20383;-66
2021/10/27 00:48:48;;;;;;;28.10;19.92;;;13.40;99.90;;;;;;5059262;28;20490;-66
2021/10/27 00:51:14;;;;;;;27.85;20.73;;;13.40;99.90;;;;;;5058824;28;20814;-66
2021/10/27 00:53:41;;;;;;;30.77;20.35;;;13.40;99.90;;;;;;5061428;28;20437;-66
2021/10/27 00:56:07;;;;;;;25.05;19.95;;;13.40;99.90;;;;;;5062889;28;20044;-66
2021/10/27 00:58:35;;;;;;;26.58;20.08;;;13.40;99.90;;;;;;5059559;28;20032;-66
2021/10/27 01:01:01;;;;;;;33.40;19.98;;;13.40;99.90;;;;;;5061351;28;20063;-66
2021/10/27 01:03:27;;;;;;;27.92;19.88;;;13.40;99.90;;;;;;5061090;28;20033;-66
2021/10/27 01:05:53;;;;;;;25.38;18.85;;;13.40;99.90;;;;;;5059650;28;20161;-66
2021/10/27 01:08:19;;;;;;;27.40;19.23;;;13.40;99.90;;;;;;5057814;28;20051;-66
2021/10/27 01:10:45;;;;;;;25.98;19.27;;;13.40;99.90;;;;;;5059424;28;20028;-66
2021/10/27 01:13:11;;;;;;;27.02;19.33;;;13.40;99.90;;;;;;5056791;28;20529;-66
2021/10/27 01:15:40;;;;;;;28.95;19.92;;;13.40;99.90;;;;;;5055835;28;20682;-66
2021/10/27 01:18:07;;;;;;;30.05;18.30;;;13.30;99.90;;;;;;5092732;27;20043;-66
2021/10/27 01:20:33;;;;;;;26.13;18.92;;;13.30;99.90;;;;;;5058811;28;20449;-66
2021/10/27 01:22:59;;;;;;;24.83;19.40;;;13.30;99.90;;;;;;5061149;28;20422;-66
2021/10/27 01:25:25;;;;;;;27.75;19.52;;;13.30;99.90;;;;;;5060837;28;20049;-66
2021/10/27 01:27:52;;;;;;;28.30;19.08;;;13.40;99.90;;;;;;5058124;28;20055;-66
2021/10/27 01:30:20;;;;;;;27.58;19.83;;;13.30;99.90;;;;;;5055299;28;20127;-66
2021/10/27 01:32:46;;;;;;;25.70;17.30;;;13.40;99.90;;;;;;5059919;28;20041;-66
2021/10/27 01:35:13;;;;;;;25.88;19.67;;;13.40;99.90;;;;;;5064088;28;20438;-66
2021/10/27 01:37:40;;;;;;;30.60;19.30;;;13.40;99.90;;;;;;5090915;27;20052;-66
2021/10/27 01:40:09;;;;;;;31.40;18.13;;;13.40;99.90;;;;;;5060908;28;20418;-66
2021/10/27 01:42:34;;;;;;;29.02;19.05;;;13.40;99.90;;;;;;5088392;27;20045;-66
2021/10/27 01:45:01;;;;;;;28.63;20.08;;;13.40;99.90;;;;;;5059324;28;20048;-66
2021/10/27 01:47:27;;;;;;;28.08;19.67;;;13.40;99.90;;;;;;5059596;28;20045;-66
2021/10/27 01:49:53;;;;;;;28.05;19.95;;;13.50;99.90;;;;;;5057532;28;20131;-66
2021/10/27 01:52:19;;;;;;;28.50;19.77;;;13.40;99.90;;;;;;5057997;28;20521;-66
2021/10/27 01:54:45;;;;;;;30.38;21.10;;;13.40;99.90;;;;;;5057093;28;20186;-66
2021/10/27 01:57:11;;;;;;;33.55;20.70;;;13.50;99.90;;;;;;5092513;27;20131;-66
2021/10/27 01:59:43;;;;;;;25.60;20.08;;;13.50;99.90;;;;;;5056284;28;20055;-66
2021/10/27 02:02:09;;;;;;;31.15;21.17;;;13.50;99.90;;;;;;5057040;28;20041;-66
2021/10/27 02:04:34;;;;;;;36.22;22.25;;;13.40;99.90;;;;;;5056167;28;21031;-66
2021/10/27 02:07:00;;;;;;;37.97;22.35;;;13.50;99.90;;;;;;5057729;28;20428;-66
2021/10/27 02:09:26;;;;;;;37.35;23.10;;;13.50;99.90;;;;;;5058865;28;20040;-66
2021/10/27 02:11:52;;;;;;;32.70;22.85;;;13.50;99.90;;;;;;5054967;28;20040;-66
2021/10/27 02:14:18;;;;;;;31.20;22.55;;;13.50;99.90;;;;;;5058105;28;20044;-66
2021/10/27 02:16:44;;;;;;;34.72;23.55;;;13.50;99.90;;;;;;5059481;28;20041;-66
2021/10/27 02:19:10;;;;;;;39.60;22.48;;;13.50;99.90;;;;;;5058244;28;20394;-66
2021/10/27 02:21:36;;;;;;;32.17;21.30;;;13.50;99.90;;;;;;5057502;28;20037;-66
2021/10/27 02:24:02;;;;;;;37.10;22.80;;;13.50;99.90;;;;;;5057131;28;20136;-66
2021/10/27 02:26:28;;;;;;;33.15;22.27;;;13.50;99.90;;;;;;5058391;28;20085;-66
2021/10/27 02:28:54;;;;;;;32.97;20.73;;;13.60;99.90;;;;;;5062757;28;20592;-66
2021/10/27 02:31:20;;;;;;;34.85;21.63;;;13.60;99.90;;;;;;5060920;28;20490;-66
2021/10/27 02:33:46;;;;;;;37.78;21.52;;;13.50;99.90;;;;;;5091550;27;20112;-66
2021/10/27 02:36:12;;;;;;;32.70;22.17;;;13.50;99.90;;;;;;5066727;28;20155;-66
2021/10/27 02:38:41;;;;;;;31.48;21.15;;;13.60;99.90;;;;;;5063050;28;20564;-66
2021/10/27 02:41:07;;;;;;;30.08;19.83;;;13.60;99.90;;;;;;5068962;28;20083;-66
2021/10/27 02:43:32;;;;;;;30.42;20.38;;;13.60;99.90;;;;;;5067389;28;20067;-66
2021/10/27 02:45:58;;;;;;;35.65;19.33;;;13.60;99.90;;;;;;5068617;28;20032;-66
2021/10/27 02:48:24;;;;;;;28.67;18.60;;;13.50;99.90;;;;;;5064482;28;20037;-66
2021/10/27 02:50:49;;;;;;;29.83;18.05;;;13.60;99.90;;;;;;5063629;28;20147;-66
2021/10/27 02:53:16;;;;;;;29.55;17.42;;;13.50;99.90;;;;;;5063752;28;20079;-66
2021/10/27 02:55:41;;;;;;;29.50;17.70;;;13.60;99.90;;;;;;5093121;27;20140;-66
2021/10/27 02:58:07;;;;;;;28.50;16.90;;;13.60;99.90;;;;;;5070639;28;20553;-66
2021/10/27 03:00:32;;;;;;;37.85;18.02;;;13.50;99.90;;;;;;5066991;28;20041;-66
2021/10/27 03:02:58;;;;;;;27.52;16.25;;;13.60;99.90;;;;;;5065170;28;20127;-66
2021/10/27 03:05:24;;;;;;;27.98;15.07;;;13.60;99.90;;;;;;5098797;27;20078;-66
2021/10/27 03:07:50;;;;;;;27.00;15.75;;;13.60;99.90;;;;;;5060309;28;20135;-66
2021/10/27 03:10:16;;;;;;;40.70;16.70;;;13.60;99.90;;;;;;5066887;28;20071;-66
2021/10/27 03:12:42;;;;;;;24.63;14.00;;;13.60;99.90;;;;;;5093464;27;20044;-66
2021/10/27 03:15:09;;;;;;;30.88;13.55;;;13.60;99.90;;;;;;5066434;28;20482;-66
2021/10/27 03:17:34;;;;;;;26.05;13.70;;;13.60;99.90;;;;;;5098968;27;20040;-66
2021/10/27 03:20:00;;;;;;;19.63;11.90;;;13.60;99.90;;;;;;5069246;28;20102;-66
2021/10/27 03:22:26;;;;;;;21.80;12.13;;;13.60;99.90;;;;;;5067039;28;20415;-66
2021/10/27 03:24:51;;;;;;;28.88;11.70;;;13.60;99.90;;;;;;5064921;28;20078;-66
2021/10/27 03:27:17;;;;;;;23.30;10.77;;;13.70;99.90;;;;;;5068006;28;20036;-66
2021/10/27 03:29:43;;;;;;;26.83;10.68;;;13.60;99.90;;;;;;5062628;28;20045;-66
2021/10/27 03:32:09;;;;;;;19.75;10.05;;;13.60;99.90;;;;;;5064330;28;20072;-66
2021/10/27 03:34:35;;;;;;;20.75;10.38;;;13.70;99.90;;;;;;5059269;28;20045;-66
2021/10/27 03:37:02;;;;;;;21.90;9.73;;;13.70;99.90;;;;;;5068884;28;20048;-66
2021/10/27 03:39:28;;;;;;;21.77;11.52;;;13.60;99.90;;;;;;5067229;28;20576;-66
2021/10/27 03:41:53;;;;;;;22.15;11.18;;;13.70;99.90;;;;;;5062676;28;20042;-66
2021/10/27 03:44:19;;;;;;;28.48;9.13;;;13.70;99.90;;;;;;5066272;28;20036;-66
2021/10/27 03:46:45;;;;;;;17.85;8.52;;;13.70;99.90;;;;;;5064831;28;20041;-66
2021/10/27 03:49:11;;;;;;;23.92;9.35;;;13.70;99.90;;;;;;5065672;28;20054;-66
2021/10/27 03:51:37;;;;;;;24.13;8.57;;;13.70;99.90;;;;;;5063867;28;20474;-66
2021/10/27 03:54:02;;;;;;;19.92;9.18;;;13.70;99.90;;;;;;5060861;28;20037;-66
2021/10/27 03:56:28;;;;;;;21.63;9.23;;;13.70;99.90;;;;;;5062787;28;20093;-66
2021/10/27 03:58:54;;;;;;;20.92;8.75;;;13.70;99.90;;;;;;5065655;28;20037;-66
2021/10/27 04:01:20;;;;;;;29.58;9.60;;;13.70;99.90;;;;;;5067383;28;20377;-66
2021/10/27 04:03:46;;;;;;;24.05;9.95;;;13.70;99.90;;;;;;5070252;28;20070;-66
2021/10/27 04:06:11;;;;;;;20.60;8.73;;;13.80;99.90;;;;;;5070315;28;20082;-66
2021/10/27 04:08:37;;;;;;;26.15;8.65;;;13.70;99.90;;;;;;5068447;28;20128;-66
2021/10/27 04:11:03;;;;;;;23.92;8.77;;;13.70;99.90;;;;;;5070452;28;20037;-66
2021/10/27 04:13:28;;;;;;;21.52;8.57;;;13.80;99.90;;;;;;5065440;28;20110;-66
2021/10/27 04:15:54;;;;;;;20.60;10.43;;;13.80;99.90;;;;;;5065670;28;20033;-66
2021/10/27 04:18:20;;;;;;;25.55;11.35;;;13.80;99.90;;;;;;5093555;27;20068;-66
2021/10/27 04:20:46;;;;;;;23.92;10.18;;;13.70;99.90;;;;;;5067869;28;20076;-66
2021/10/27 04:23:12;;;;;;;29.13;8.65;;;13.80;99.90;;;;;;5069664;28;20513;-66
2021/10/27 04:25:38;;;;;;;22.92;9.55;;;13.80;99.90;;;;;;5069998;28;20040;-66
2021/10/27 04:28:04;;;;;;;25.52;10.02;;;13.80;99.90;;;;;;5066222;28;20090;-66
2021/10/27 04:30:30;;;;;;;19.10;8.98;;;13.80;99.90;;;;;;5068735;28;20040;-66
2021/10/27 04:32:56;;;;;;;21.95;9.40;;;13.80;99.90;;;;;;5068098;28;20028;-66
2021/10/27 04:35:22;;;;;;;26.40;10.40;;;13.80;99.90;;;;;;5066769;28;20910;-66
2021/10/27 04:37:49;;;;;;;25.02;9.20;;;13.80;99.90;;;;;;5061586;28;20127;-66
2021/10/27 04:40:17;;;;;;;17.73;8.85;;;13.80;99.90;;;;;;5065214;28;20045;-66
2021/10/27 04:42:43;;;;;;;23.38;7.82;;;13.80;99.90;;;;;;5061435;28;20139;-66
2021/10/27 04:45:10;;;;;;;22.42;8.82;;;13.80;99.90;;;;;;5058923;28;20090;-66
2021/10/27 04:47:37;;;;;;;21.55;8.18;;;13.80;99.90;;;;;;5046819;28;20079;-66
2021/10/27 04:50:05;;;;;;;24.52;8.27;;;13.80;99.90;;;;;;5061934;28;20033;-66
2021/10/27 04:52:31;;;;;;;25.45;9.52;;;13.80;99.90;;;;;;5063607;28;20047;-66
2021/10/27 04:54:57;;;;;;;25.13;9.50;;;13.80;99.90;;;;;;5096350;27;20094;-66
2021/10/27 04:57:23;;;;;;;24.40;9.00;;;13.70;99.90;;;;;;5066147;28;20040;-66
2021/10/27 04:59:49;;;;;;;27.70;8.07;;;13.70;99.90;;;;;;5062686;28;20044;-66
2021/10/27 05:02:16;;;;;;;26.15;8.18;;;13.70;99.90;;;;;;5063136;28;20174;-66
2021/10/27 05:04:42;;;;;;;18.38;8.07;;;13.70;99.90;;;;;;5069615;28;20047;-66
2021/10/27 05:07:11;;;;;;;30.70;8.20;;;13.70;99.90;;;;;;5061312;28;20048;-66
2021/10/27 05:09:37;;;;;;;20.20;8.70;;;13.70;99.90;;;;;;5059503;28;20052;-66
2021/10/27 05:12:04;;;;;;;20.50;8.63;;;13.70;99.90;;;;;;5064585;28;20526;-66
2021/10/27 05:14:31;;;;;;;23.38;9.57;;;13.80;99.90;;;;;;5066212;28;20052;-66
2021/10/27 05:16:57;;;;;;;23.45;9.55;;;13.80;99.90;;;;;;5065097;28;20064;-66
2021/10/27 05:19:22;;;;;;;23.58;10.05;;;13.80;99.90;;;;;;5065839;28;20159;-66
2021/10/27 05:21:48;;;;;;;18.58;9.93;;;13.80;99.90;;;;;;5067956;28;20032;-66
2021/10/27 05:24:19;;;;;;;23.80;11.05;;;13.70;99.90;;;;;;5066598;28;20449;-66
2021/10/27 05:26:45;;;;;;;19.23;11.40;;;13.80;99.90;;;;;;5065151;28;20517;-66
2021/10/27 05:29:11;;;;;;;24.10;10.70;;;13.70;99.90;;;;;;5069551;28;20040;-66
2021/10/27 05:31:37;;;;;;;22.63;12.50;;;13.70;99.90;;;;;;5065437;28;20037;-66
2021/10/27 05:34:03;;;;;;;18.95;11.25;;;13.80;99.90;;;;;;5069757;28;20483;-66
2021/10/27 05:36:29;;;;;;;20.25;12.10;;;13.70;99.90;;;;;;5060182;28;20509;-66
2021/10/27 05:38:55;;;;;;;23.92;12.82;;;13.70;99.90;;;;;;5059592;28;20044;-66
2021/10/27 05:41:21;;;;;;;24.40;13.27;;;13.70;99.90;;;;;;5061100;28;20041;-66
2021/10/27 05:43:47;;;;;;;25.05;14.13;;;13.70;99.90;;;;;;5061357;28;20562;-66
2021/10/27 05:46:14;;;;;;;23.42;13.32;;;13.70;99.90;;;;;;5062400;28;20044;-66
2021/10/27 05:48:44;;;;;;;27.45;13.25;;;13.70;99.90;;;;;;5061063;28;20041;-66
2021/10/27 05:51:24;;;;;;;23.23;14.43;;;13.70;99.90;;;;;;5060677;28;20032;-66
2021/10/27 05:56:34;;;;;;;29.95;15.10;;;13.70;99.90;;;;;;5060714;28;20075;-66
2021/10/27 05:58:59;;;;;;;33.05;14.40;;;13.70;99.90;;;;;;5058247;28;20470;-66
2021/10/27 06:01:25;;;;;;;29.33;14.70;;;13.70;99.90;;;;;;5056510;28;20048;-66
2021/10/27 06:03:51;;;;;;;23.60;13.77;;;13.60;99.90;;;;;;5074714;28;20128;-66
2021/10/27 06:06:16;;;;;;;27.50;13.70;;;13.60;99.90;;;;;;5061565;28;20512;-66
2021/10/27 06:08:42;;;;;;;24.33;13.45;;;13.70;99.90;;;;;;5063947;28;20068;-65
2021/10/27 06:11:13;;;;;;;16.98;12.50;;;13.70;99.90;;;;;;5059131;28;20102;-65
2021/10/27 06:13:44;;;;;;;27.52;13.43;;;13.70;99.90;;;;;;5058030;28;20044;-65
2021/10/27 06:16:09;;;;;;;19.30;11.73;;;13.70;99.90;;;;;;5094182;27;20104;-65
2021/10/27 06:18:35;;;;;;;16.35;11.98;;;13.70;99.90;;;;;;5060957;28;20123;-65
2021/10/27 06:21:01;;;;;;;23.45;12.43;;;13.70;99.90;;;;;;5076959;28;20048;-65
2021/10/27 06:23:26;;;;;;;19.08;11.65;;;13.70;99.90;;;;;;5063599;28;20371;-65
2021/10/27 06:25:52;;;;;;;23.40;10.65;;;13.70;99.90;;;;;;5060928;28;20048;-65
2021/10/27 06:28:24;;;;;;;17.08;11.38;;;13.70;99.90;;;;;;5058554;28;20039;-65
2021/10/27 06:31:09;;;;;;;14.57;9.77;;;13.60;99.90;;;;;;5061143;28;20998;-65
2021/10/27 06:33:51;;;;;;;18.83;10.57;;;13.60;99.90;;;;;;5061120;28;20102;-66
2021/10/27 06:36:29;;;;;;;25.05;11.43;;;13.60;99.90;;;;;;5061696;28;20069;-66
2021/10/27 06:46:49;;;;;;;16.83;11.43;;;13.60;99.90;;;;;;5062402;28;20037;-65
2021/10/27 06:49:15;;;;;;;19.40;13.27;;;13.70;99.90;;;;;;5060554;28;20522;-65
2021/10/27 06:51:40;;;;;;;29.70;14.00;;;13.70;99.90;;;;;;5063134;28;20041;-65
2021/10/27 06:54:06;;;;;;;18.75;12.00;;;13.60;99.90;;;;;;5061334;28;20044;-65
2021/10/27 06:56:33;;;;;;;24.05;13.35;;;13.70;99.90;;;;;;5094678;27;20032;-66
2021/10/27 06:59:13;;;;;;;19.15;13.23;;;13.60;99.90;;;;;;5072739;28;20127;-66
2021/10/27 07:17:21;;;;;;;21.77;13.57;;;13.60;99.90;;;;;;5062873;28;20478;-66
2021/10/27 07:19:46;;;;;;;19.98;13.98;;;13.70;99.90;;;;;;5060113;28;20032;-65
2021/10/27 07:22:14;;;;;;;18.20;12.82;;;13.70;99.90;;;;;;5058564;28;20075;-65
2021/10/27 07:24:41;;;;;;;22.75;13.38;;;13.60;99.90;;;;;;5060232;28;20125;-65
2021/10/27 07:27:07;;;;;;;16.25;13.15;;;13.70;99.90;;;;;;5061273;28;20078;-65
2021/10/27 07:29:34;;;;;;;19.88;13.27;;;13.70;99.90;;;;;;5060311;28;20033;-65
2021/10/27 07:32:01;;;;;;;18.05;13.23;;;13.70;99.90;;;;;;5062667;28;20406;-65
2021/10/27 07:34:37;;;;;;;27.63;14.00;;;13.70;99.90;;;;;;5060598;28;20823;-65
2021/10/27 07:40:04;;;;;;;20.63;13.00;;;13.70;99.90;;;;;;5092239;28;20041;-66
2021/10/27 07:42:30;;;;;;;22.70;13.15;;;13.60;99.90;;;;;;5062566;28;20037;-65
2021/10/27 07:44:55;;;;;;;22.58;12.52;;;13.70;99.90;;;;;;5062514;28;20045;-66
2021/10/27 07:47:21;;;;;;;27.83;13.15;;;13.70;99.90;;;;;;5061909;28;20082;-66
2021/10/27 07:49:47;;;;;;;18.38;10.88;;;13.80;99.90;;;;;;5059411;28;20483;-65
2021/10/27 07:52:13;;;;;;;17.88;11.52;;;13.70;99.90;;;;;;5059637;28;20055;-65
2021/10/27 07:54:39;;;;;;;18.55;11.30;;;13.80;99.90;;;;;;5062425;28;20044;-65
2021/10/27 07:57:05;;;;;;;14.98;11.00;;;13.80;99.90;;;;;;5063412;28;20398;-66
2021/10/27 07:59:31;;;;;;;17.70;10.65;;;13.80;99.90;;;;;;5058341;28;20057;-66
2021/10/27 08:01:59;;;;;;;13.30;11.25;;;13.90;99.90;;;;;;5054075;28;20187;-66
2021/10/27 08:04:24;;;;;;;18.52;11.25;;;13.90;99.90;;;;;;5084258;28;20061;-66
2021/10/27 08:06:50;;;;;;;15.95;10.75;;;13.90;99.90;;;;;;5052419;28;20118;-66
2021/10/27 08:09:15;;;;;;;19.85;9.75;;;13.90;99.90;;;;;;5053396;28;20035;-66
2021/10/27 08:11:41;;;;;;;13.48;9.75;;;14.00;99.90;;;;;;5054981;28;20029;-66
2021/10/27 08:14:07;;;;;;;16.05;8.98;;;14.00;99.90;;;;;;5053800;28;20493;-65
2021/10/27 08:16:33;;;;;;;23.08;11.18;;;14.00;99.90;;;;;;5051916;28;20036;-65
2021/10/27 08:19:00;;;;;;;17.92;8.95;;;14.00;99.90;;;;;;5055694;28;20119;-65
2021/10/27 08:21:26;;;;;;;15.15;8.32;;;14.00;99.90;;;;;;5051811;28;20048;-65
2021/10/27 08:23:53;;;;;;;13.10;7.63;;;14.00;99.90;;;;;;5051376;28;20136;-65
2021/10/27 08:26:23;;;;;;;12.70;7.45;;;14.10;99.90;;;;;;5054699;28;20029;-66
2021/10/27 08:36:19;;;;;;;11.82;6.18;;;14.00;99.90;;;;;;5084211;28;20052;-66
2021/10/27 08:38:45;;;;;;;11.48;6.93;;;14.00;99.90;;;;;;5054460;28;20055;-66
2021/10/27 08:41:12;;;;;;;12.15;7.00;;;14.00;99.90;;;;;;5054472;28;20044;-66
2021/10/27 08:43:38;;;;;;;14.70;6.50;;;14.00;99.90;;;;;;5085472;28;20072;-66
2021/10/27 08:46:05;;;;;;;16.50;6.38;;;14.00;99.90;;;;;;5050035;28;20037;-66
2021/10/27 08:48:34;;;;;;;20.05;7.13;;;13.90;99.90;;;;;;5054098;28;20044;-66
2021/10/27 08:51:11;;;;;;;12.30;6.00;;;14.00;99.90;;;;;;5054515;28;20041;-66
2021/10/27 08:53:37;;;;;;;11.45;5.60;;;14.00;99.90;;;;;;5055047;28;20041;-65
2021/10/27 08:56:05;;;;;;;16.30;6.28;;;14.00;99.90;;;;;;5086880;27;20049;-66
2021/10/27 08:58:39;;;;;;;10.45;5.30;;;14.00;99.90;;;;;;5055797;28;20041;-66
2021/10/27 09:01:12;;;;;;;14.05;5.18;;;14.10;99.90;;;;;;5057356;28;20037;-66
2021/10/27 09:10:35;;;;;;;19.35;5.90;;;14.10;99.90;;;;;;5026178;28;20053;-66
2021/10/27 09:38:41;;;;;;;11.07;5.18;;;14.10;99.90;;;;;;5056074;28;20068;-66
2021/10/27 09:41:49;;;;;;;9.55;4.20;;;14.20;99.90;;;;;;5053013;28;20043;-66
2021/10/27 10:04:08;;;;;;;8.50;3.08;;;14.50;99.90;;;;;;5057276;28;20055;-66
2021/10/27 10:06:47;;;;;;;13.75;2.95;;;14.50;99.90;;;;;;5053816;28;20053;-66
2021/10/27 10:09:13;;;;;;;9.02;2.92;;;14.60;99.90;;;;;;5054222;28;20041;-66
2021/10/27 10:11:40;;;;;;;7.97;2.85;;;14.50;99.90;;;;;;5053639;28;20554;-66
2021/10/27 10:14:07;;;;;;;10.23;3.03;;;14.60;99.90;;;;;;5088033;27;20047;-65
2021/10/27 10:16:54;;;;;;;7.95;2.55;;;14.60;99.90;;;;;;5052519;28;20037;-66
2021/10/27 10:19:30;;;;;;;8.73;2.67;;;14.70;99.90;;;;;;5055292;28;20572;-65
2021/10/27 10:21:55;;;;;;;13.10;2.60;;;14.70;99.90;;;;;;5051183;28;20080;-65
2021/10/27 10:24:31;;;;;;;8.52;2.55;;;14.80;99.90;;;;;;5038629;28;20593;-66
2021/10/27 10:27:00;;;;;;;7.90;2.42;;;14.80;99.90;;;;;;5051846;28;20039;-66
2021/10/27 10:29:35;;;;;;;9.20;2.38;;;14.80;99.90;;;;;;5056057;28;20036;-65
2021/10/27 10:32:21;;;;;;;18.92;3.20;;;14.80;99.90;;;;;;5087696;28;20075;-66
2021/10/27 10:34:50;;;;;;;7.75;2.22;;;14.80;99.90;;;;;;5053934;28;20071;-66
2021/10/27 10:37:35;;;;;;;9.65;2.58;;;14.90;99.90;;;;;;5053231;28;20450;-66
2021/10/27 11:23:17;;;;;;;16.73;3.30;;;15.00;99.90;;;;;;5041951;28;20057;-65
2021/10/27 11:37:33;;;;;;;;;;;15.10;99.90;;;;;;5086077;28;20128;-65
2021/10/27 11:42:46;;;;;;;12.20;3.25;;;15.20;99.90;;;;;;5054214;28;20048;-65
2021/10/27 11:45:21;;;;;;;9.25;2.88;;;15.20;99.90;;;;;;5087660;28;20121;-65
2021/10/27 11:47:49;;;;;;;9.00;2.47;;;15.20;99.90;;;;;;5052194;28;20379;-65
2021/10/27 11:50:17;;;;;;;11.18;3.10;;;15.20;99.90;;;;;;5088230;28;21793;-65
2021/10/27 11:52:44;;;;;;;11.15;2.60;;;15.30;99.90;;;;;;5054837;28;20772;-66
2021/10/27 11:55:16;;;;;;;9.55;2.47;;;15.30;99.90;;;;;;5055032;28;20037;-65
2021/10/27 11:57:45;;;;;;;10.60;2.95;;;15.30;99.90;;;;;;5053416;28;20091;-65
2021/10/27 12:00:38;;;;;;;8.98;3.22;;;15.30;99.90;;;;;;5062154;28;20052;-65
2021/10/27 12:03:21;;;;;;;5.97;2.88;;;15.30;99.90;;;;;;5054665;28;20040;-65
2021/10/27 12:08:39;;;;;;;11.95;3.88;;;15.30;99.90;;;;;;5085844;28;20118;-65
2021/10/27 12:16:45;;;;;;;10.70;2.60;;;15.40;99.90;;;;;;5056936;28;20124;-65
2021/10/27 12:19:30;;;;;;;8.15;2.83;;;15.40;99.90;;;;;;5057671;28;20036;-65
2021/10/27 12:22:04;;;;;;;14.93;4.45;;;15.30;99.90;;;;;;5058620;28;20398;-65
2021/10/27 12:24:36;;;;;;;14.52;3.25;;;15.40;99.90;;;;;;5056398;28;20048;-65
2021/10/27 12:27:29;;;;;;;8.65;2.75;;;15.30;99.90;;;;;;5057567;28;20081;-66
2021/10/27 12:29:59;;;;;;;9.77;3.10;;;15.30;99.90;;;;;;5056455;28;20040;-65
2021/10/27 12:32:27;;;;;;;7.13;2.53;;;15.30;99.90;;;;;;5058473;28;20044;-65
2021/10/27 12:34:55;;;;;;;7.95;2.90;;;15.30;99.90;;;;;;5057662;28;20032;-66
2021/10/27 12:37:37;;;;;;;11.30;2.80;;;15.30;99.90;;;;;;5058000;28;20047;-65
2021/10/27 12:40:28;;;;;;;8.02;2.60;;;15.30;99.90;;;;;;5062466;28;20393;-65
2021/10/27 12:43:02;;;;;;;11.02;2.38;;;15.30;99.90;;;;;;5056240;28;20044;-65
2021/10/27 12:46:16;;;;;;;10.20;3.10;;;15.30;99.90;;;;;;5057702;28;20124;-65
2021/10/27 12:48:42;;;;;;;14.10;3.10;;;15.30;99.90;;;;;;5038480;28;20041;-65
2021/10/27 12:51:12;;;;;;;7.07;2.55;;;15.30;99.90;;;;;;5051941;28;20062;-65
2021/10/27 12:53:43;;;;;;;10.10;2.72;;;15.30;99.90;;;;;;5058807;28;20036;-65
2021/10/27 12:56:14;;;;;;;7.18;2.78;;;15.30;99.90;;;;;;5051810;28;20041;-65
2021/10/27 12:58:51;;;;;;;7.35;2.65;;;15.30;99.90;;;;;;5056893;28;20094;-65
2021/10/27 13:01:39;;;;;;;10.38;2.58;;;15.30;99.90;;;;;;5057663;28;20040;-65
2021/10/27 13:30:31;;;;;;;9.05;2.67;;;15.20;99.90;;;;;;5061228;28;20049;-66
2021/10/27 13:32:59;;;;;;;7.85;2.85;;;15.20;99.90;;;;;;5066528;28;20044;-65
2021/10/27 13:35:25;;;;;;;8.88;3.17;;;15.10;99.90;;;;;;5062546;28;20408;-65
2021/10/27 13:37:51;;;;;;;9.80;3.20;;;15.10;99.90;;;;;;5063061;28;20041;-65
2021/10/27 13:40:17;;;;;;;20.25;2.72;;;15.20;99.90;;;;;;5066075;28;20073;-65
2021/10/27 13:45:28;;;;;;;12.43;3.10;;;15.10;99.90;;;;;;5095354;27;20048;-65
2021/10/27 13:48:04;;;;;;;16.33;4.05;;;15.10;99.90;;;;;;5066446;28;20478;-65
2021/10/27 14:09:21;;;;;;;10.32;2.63;;;15.00;99.90;;;;;;5065950;28;20499;-65
2021/10/27 14:14:39;;;;;;;7.55;2.17;;;15.00;99.90;;;;;;5060917;28;20063;-65
2021/10/27 15:20:03;;;;;;;6.60;0.93;;;14.70;99.90;;;;;;5062860;28;20490;-65
2021/10/27 15:27:49;;;;;;;4.55;1.10;;;14.60;99.90;;;;;;5093214;28;20041;-65
2021/10/27 15:33:10;;;;;;;7.00;1.00;;;14.60;99.90;;;;;;5062386;28;20083;-65
2021/10/27 15:51:28;;;;;;;6.15;1.08;;;14.50;99.90;;;;;;5062715;28;20486;-65
2021/10/27 15:53:55;;;;;;;5.25;1.25;;;14.50;99.90;;;;;;5058601;28;20040;-65
2021/10/27 15:56:21;;;;;;;6.40;1.60;;;14.50;99.90;;;;;;5062138;28;20040;-66
2021/10/27 15:58:47;;;;;;;5.80;1.35;;;14.50;99.90;;;;;;5062842;28;20114;-66
2021/10/27 16:01:13;;;;;;;8.05;1.52;;;14.40;99.90;;;;;;5065459;28;20482;-65
2021/10/27 16:03:39;;;;;;;9.65;1.83;;;14.30;99.90;;;;;;5062835;28;20044;-65
2021/10/27 16:06:07;;;;;;;5.13;1.88;;;14.40;99.90;;;;;;5065172;28;20048;-65
2021/10/27 16:08:36;;;;;;;6.97;1.20;;;14.30;99.90;;;;;;5066406;28;20040;-65
2021/10/27 16:11:02;;;;;;;5.55;1.10;;;14.30;99.90;;;;;;5066603;28;20083;-65
2021/10/27 16:13:28;;;;;;;11.65;2.28;;;14.30;99.90;;;;;;5067758;28;20634;-66
2021/10/27 16:18:23;;;;;;;9.88;1.40;;;14.30;99.90;;;;;;5061971;28;20391;-65
2021/10/27 16:20:49;;;;;;;12.20;3.05;;;14.20;99.90;;;;;;5045616;28;20056;-65
2021/10/27 16:23:15;;;;;;;13.80;2.28;;;14.20;99.90;;;;;;5056742;28;20050;-65
2021/10/27 16:25:43;;;;;;;7.68;2.13;;;14.20;99.90;;;;;;5059717;28;20541;-65
2021/10/27 16:28:10;;;;;;;10.57;1.55;;;14.20;99.90;;;;;;5060802;28;20048;-65
2021/10/27 16:30:36;;;;;;;7.70;1.98;;;14.20;99.90;;;;;;5062018;28;20119;-65
2021/10/27 16:33:02;;;;;;;4.47;1.77;;;14.20;99.90;;;;;;5059897;28;20033;-66
2021/10/27 16:35:28;;;;;;;9.88;2.63;;;14.10;99.90;;;;;;5065369;28;20047;-65
2021/10/27 16:37:54;;;;;;;8.27;2.40;;;14.10;99.90;;;;;;5063806;28;20036;-65
2021/10/27 16:40:20;;;;;;;16.25;2.95;;;14.10;99.90;;;;;;5065352;28;20044;-65
2021/10/27 16:42:47;;;;;;;8.85;2.00;;;14.10;99.90;;;;;;5061385;28;20167;-65
2021/10/27 16:45:16;;;;;;;7.88;2.55;;;14.00;99.90;;;;;;5061924;28;20066;-65
2021/10/27 16:47:42;;;;;;;12.15;2.17;;;14.00;99.90;;;;;;5065587;28;20418;-65
2021/10/27 16:50:10;;;;;;;5.90;2.42;;;14.00;99.90;;;;;;5058296;28;20467;-66
2021/10/27 16:52:37;;;;;;;14.55;3.00;;;14.10;99.90;;;;;;5059807;28;20364;-65
2021/10/27 16:55:07;;;;;;;6.85;2.80;;;14.00;99.90;;;;;;5065087;28;20402;-66
2021/10/27 16:57:33;;;;;;;10.48;4.00;;;14.00;99.90;;;;;;5058736;28;20128;-66
2021/10/27 16:59:59;;;;;;;7.22;4.00;;;14.00;99.90;;;;;;5060037;28;20041;-66
2021/10/27 17:02:25;;;;;;;12.93;3.08;;;14.00;99.90;;;;;;5063580;28;20029;-66
2021/10/27 17:04:50;;;;;;;12.98;3.80;;;14.00;99.90;;;;;;5058584;28;20379;-66
2021/10/27 17:07:16;;;;;;;4.78;3.53;;;13.90;99.90;;;;;;5060914;28;20040;-66
2021/10/27 17:09:42;;;;;;;6.25;3.78;;;13.80;99.90;;;;;;5065936;28;20025;-66
2021/10/27 17:12:09;;;;;;;11.18;5.32;;;13.80;99.90;;;;;;5063976;28;20506;-66
2021/10/27 17:14:35;;;;;;;8.38;4.63;;;13.80;99.90;;;;;;5065037;28;20036;-66
2021/10/27 17:17:02;;;;;;;11.45;6.05;;;13.70;99.90;;;;;;5066817;28;20075;-66
2021/10/27 17:19:28;;;;;;;9.52;5.78;;;13.70;99.90;;;;;;5091486;27;20049;-66
2021/10/27 17:21:55;;;;;;;13.05;5.97;;;13.60;99.90;;;;;;5065309;28;20147;-66
2021/10/27 17:24:21;;;;;;;13.35;6.85;;;13.60;99.90;;;;;;5058816;28;20059;-66
2021/10/27 17:26:47;;;;;;;13.98;7.82;;;13.60;99.90;;;;;;5059841;28;20410;-66
2021/10/27 17:29:14;;;;;;;10.27;6.97;;;13.50;99.90;;;;;;5066302;28;20045;-66
2021/10/27 17:31:40;;;;;;;16.20;7.53;;;13.50;99.90;;;;;;5063432;28;20486;-66